sensor_id;sensor_type;location;lat;lon;timestamp;P1;durP1;ratioP1;P2;durP2;ratioP2
11535;SDS011;5824;49.336;8.652;2024-01-16T00:02:22;12.97;;;5.67;;
11535;SDS011;5824;49.336;8.652;2024-01-16T00:04:47;9.73;;;5.60;;
11535;SDS011;5824;49.336;8.652;2024-01-16T00:07:13;9.53;;;5.27;;
11535;SDS011;5824;49.336;8.652;2024-01-16T00:09:38;9.87;;;5.50;;
11535;SDS011;5824;49.336;8.652;2024-01-16T00:12:04;10.73;;;5.67;;
11535;SDS011;5824;49.336;8.652;2024-01-16T00:14:30;12.97;;;5.60;;
11535;SDS011;5824;49.336;8.652;2024-01-16T00:16:59;13.57;;;5.50;;
11535;SDS011;5824;49.336;8.652;2024-01-16T00:19:24;12.50;;;5.20;;
11535;SDS011;5824;49.336;8.652;2024-01-16T00:21:50;11.20;;;5.27;;
11535;SDS011;5824;49.336;8.652;2024-01-16T00:24:16;11.23;;;5.60;;
11535;SDS011;5824;49.336;8.652;2024-01-16T00:26:42;10.37;;;6.13;;
11535;SDS011;5824;49.336;8.652;2024-01-16T00:29:08;8.90;;;5.10;;
11535;SDS011;5824;49.336;8.652;2024-01-16T00:31:37;10.03;;;5.33;;
11535;SDS011;5824;49.336;8.652;2024-01-16T00:34:04;12.83;;;6.40;;
11535;SDS011;5824;49.336;8.652;2024-01-16T00:36:29;9.77;;;5.10;;
11535;SDS011;5824;49.336;8.652;2024-01-16T00:38:55;10.03;;;6.00;;
11535;SDS011;5824;49.336;8.652;2024-01-16T00:41:21;10.17;;;5.50;;
11535;SDS011;5824;49.336;8.652;2024-01-16T00:43:47;9.20;;;5.40;;
11535;SDS011;5824;49.336;8.652;2024-01-16T00:46:12;7.00;;;5.20;;
11535;SDS011;5824;49.336;8.652;2024-01-16T00:48:38;12.83;;;5.83;;
11535;SDS011;5824;49.336;8.652;2024-01-16T00:51:04;12.73;;;5.43;;
11535;SDS011;5824;49.336;8.652;2024-01-16T00:53:30;11.80;;;6.37;;
11535;SDS011;5824;49.336;8.652;2024-01-16T00:55:55;14.23;;;6.47;;
11535;SDS011;5824;49.336;8.652;2024-01-16T00:58:24;13.73;;;5.70;;
11535;SDS011;5824;49.336;8.652;2024-01-16T01:00:49;11.70;;;5.60;;
11535;SDS011;5824;49.336;8.652;2024-01-16T01:03:15;11.20;;;5.83;;
11535;SDS011;5824;49.336;8.652;2024-01-16T01:05:41;13.00;;;5.70;;
11535;SDS011;5824;49.336;8.652;2024-01-16T01:08:06;11.57;;;5.90;;
11535;SDS011;5824;49.336;8.652;2024-01-16T01:10:32;13.20;;;6.60;;
11535;SDS011;5824;49.336;8.652;2024-01-16T01:12:58;13.60;;;6.00;;
11535;SDS011;5824;49.336;8.652;2024-01-16T01:15:23;11.13;;;5.63;;
11535;SDS011;5824;49.336;8.652;2024-01-16T01:17:49;9.70;;;5.80;;
11535;SDS011;5824;49.336;8.652;2024-01-16T01:20:17;9.57;;;5.77;;
11535;SDS011;5824;49.336;8.652;2024-01-16T01:22:44;12.07;;;6.37;;
11535;SDS011;5824;49.336;8.652;2024-01-16T01:25:11;11.60;;;5.73;;
11535;SDS011;5824;49.336;8.652;2024-01-16T01:27:37;13.97;;;6.23;;
11535;SDS011;5824;49.336;8.652;2024-01-16T01:30:03;12.60;;;5.60;;
11535;SDS011;5824;49.336;8.652;2024-01-16T01:32:29;10.07;;;5.20;;
11535;SDS011;5824;49.336;8.652;2024-01-16T01:34:54;14.47;;;5.50;;
11535;SDS011;5824;49.336;8.652;2024-01-16T01:37:20;8.80;;;5.57;;
11535;SDS011;5824;49.336;8.652;2024-01-16T01:39:45;6.97;;;4.47;;
11535;SDS011;5824;49.336;8.652;2024-01-16T01:42:10;13.37;;;5.13;;
11535;SDS011;5824;49.336;8.652;2024-01-16T01:44:36;10.77;;;5.50;;
11535;SDS011;5824;49.336;8.652;2024-01-16T01:47:02;9.27;;;5.77;;
11535;SDS011;5824;49.336;8.652;2024-01-16T01:49:28;10.13;;;5.10;;
11535;SDS011;5824;49.336;8.652;2024-01-16T01:51:55;9.10;;;5.60;;
11535;SDS011;5824;49.336;8.652;2024-01-16T01:54:21;10.30;;;5.60;;
11535;SDS011;5824;49.336;8.652;2024-01-16T01:56:49;15.37;;;6.30;;
11535;SDS011;5824;49.336;8.652;2024-01-16T01:59:17;11.83;;;6.10;;
11535;SDS011;5824;49.336;8.652;2024-01-16T02:01:44;27.93;;;10.17;;
11535;SDS011;5824;49.336;8.652;2024-01-16T02:04:12;18.10;;;6.90;;
11535;SDS011;5824;49.336;8.652;2024-01-16T02:06:41;11.43;;;5.83;;
11535;SDS011;5824;49.336;8.652;2024-01-16T02:09:07;13.57;;;6.07;;
11535;SDS011;5824;49.336;8.652;2024-01-16T02:11:33;10.80;;;5.97;;
11535;SDS011;5824;49.336;8.652;2024-01-16T02:13:58;11.90;;;5.63;;
11535;SDS011;5824;49.336;8.652;2024-01-16T02:16:24;13.57;;;6.80;;
11535;SDS011;5824;49.336;8.652;2024-01-16T02:18:49;9.77;;;5.47;;
11535;SDS011;5824;49.336;8.652;2024-01-16T02:21:27;10.97;;;5.70;;
11535;SDS011;5824;49.336;8.652;2024-01-16T02:23:53;10.33;;;5.43;;
11535;SDS011;5824;49.336;8.652;2024-01-16T02:26:19;8.83;;;5.17;;
11535;SDS011;5824;49.336;8.652;2024-01-16T02:28:45;9.50;;;5.00;;
11535;SDS011;5824;49.336;8.652;2024-01-16T02:31:11;10.53;;;5.87;;
11535;SDS011;5824;49.336;8.652;2024-01-16T02:33:36;9.80;;;5.80;;
11535;SDS011;5824;49.336;8.652;2024-01-16T02:36:02;11.70;;;6.17;;
11535;SDS011;5824;49.336;8.652;2024-01-16T02:38:28;14.80;;;5.80;;
11535;SDS011;5824;49.336;8.652;2024-01-16T02:40:54;11.37;;;5.73;;
11535;SDS011;5824;49.336;8.652;2024-01-16T02:43:19;13.67;;;5.90;;
11535;SDS011;5824;49.336;8.652;2024-01-16T02:45:45;10.53;;;5.97;;
11535;SDS011;5824;49.336;8.652;2024-01-16T02:48:11;16.70;;;6.20;;
11535;SDS011;5824;49.336;8.652;2024-01-16T02:50:36;11.83;;;6.10;;
11535;SDS011;5824;49.336;8.652;2024-01-16T02:53:03;10.50;;;5.67;;
11535;SDS011;5824;49.336;8.652;2024-01-16T02:55:29;15.00;;;5.90;;
11535;SDS011;5824;49.336;8.652;2024-01-16T02:57:54;9.83;;;5.90;;
11535;SDS011;5824;49.336;8.652;2024-01-16T03:00:20;17.73;;;6.73;;
11535;SDS011;5824;49.336;8.652;2024-01-16T03:02:45;10.93;;;5.80;;
11535;SDS011;5824;49.336;8.652;2024-01-16T03:05:11;9.13;;;5.17;;
11535;SDS011;5824;49.336;8.652;2024-01-16T03:07:36;8.07;;;5.27;;
11535;SDS011;5824;49.336;8.652;2024-01-16T03:10:02;11.70;;;5.50;;
11535;SDS011;5824;49.336;8.652;2024-01-16T03:12:28;10.27;;;5.57;;
11535;SDS011;5824;49.336;8.652;2024-01-16T03:14:53;14.73;;;6.00;;
11535;SDS011;5824;49.336;8.652;2024-01-16T03:17:19;14.17;;;5.57;;
11535;SDS011;5824;49.336;8.652;2024-01-16T03:19:45;11.03;;;6.57;;
11535;SDS011;5824;49.336;8.652;2024-01-16T03:22:10;12.17;;;6.33;;
11535;SDS011;5824;49.336;8.652;2024-01-16T03:24:36;13.03;;;6.23;;
11535;SDS011;5824;49.336;8.652;2024-01-16T03:27:01;13.03;;;6.33;;
11535;SDS011;5824;49.336;8.652;2024-01-16T03:29:29;14.57;;;6.10;;
11535;SDS011;5824;49.336;8.652;2024-01-16T03:31:54;14.87;;;6.73;;
11535;SDS011;5824;49.336;8.652;2024-01-16T03:34:20;17.80;;;6.60;;
11535;SDS011;5824;49.336;8.652;2024-01-16T03:36:45;14.20;;;6.40;;
11535;SDS011;5824;49.336;8.652;2024-01-16T03:39:11;11.47;;;6.07;;
11535;SDS011;5824;49.336;8.652;2024-01-16T03:41:37;10.60;;;6.10;;
11535;SDS011;5824;49.336;8.652;2024-01-16T03:44:02;12.70;;;5.70;;
11535;SDS011;5824;49.336;8.652;2024-01-16T03:46:28;11.43;;;6.20;;
11535;SDS011;5824;49.336;8.652;2024-01-16T03:48:54;13.77;;;5.90;;
11535;SDS011;5824;49.336;8.652;2024-01-16T03:51:19;10.47;;;4.90;;
11535;SDS011;5824;49.336;8.652;2024-01-16T03:53:45;13.77;;;5.33;;
11535;SDS011;5824;49.336;8.652;2024-01-16T03:56:10;11.07;;;6.53;;
11535;SDS011;5824;49.336;8.652;2024-01-16T03:58:36;12.00;;;5.80;;
11535;SDS011;5824;49.336;8.652;2024-01-16T04:01:02;10.47;;;5.80;;
11535;SDS011;5824;49.336;8.652;2024-01-16T04:03:28;11.00;;;5.50;;
11535;SDS011;5824;49.336;8.652;2024-01-16T04:05:53;12.13;;;5.93;;
11535;SDS011;5824;49.336;8.652;2024-01-16T04:08:19;9.33;;;5.20;;
11535;SDS011;5824;49.336;8.652;2024-01-16T04:10:44;17.20;;;6.37;;
11535;SDS011;5824;49.336;8.652;2024-01-16T04:13:10;10.17;;;5.40;;
11535;SDS011;5824;49.336;8.652;2024-01-16T04:15:39;9.83;;;5.43;;
11535;SDS011;5824;49.336;8.652;2024-01-16T04:18:04;10.73;;;5.87;;
11535;SDS011;5824;49.336;8.652;2024-01-16T04:20:30;9.63;;;5.30;;
11535;SDS011;5824;49.336;8.652;2024-01-16T04:22:56;12.80;;;5.97;;
11535;SDS011;5824;49.336;8.652;2024-01-16T04:25:22;11.13;;;5.47;;
11535;SDS011;5824;49.336;8.652;2024-01-16T04:27:48;13.20;;;5.43;;
11535;SDS011;5824;49.336;8.652;2024-01-16T04:30:13;14.13;;;6.17;;
11535;SDS011;5824;49.336;8.652;2024-01-16T04:32:39;15.33;;;5.70;;
11535;SDS011;5824;49.336;8.652;2024-01-16T04:35:05;10.90;;;5.27;;
11535;SDS011;5824;49.336;8.652;2024-01-16T04:37:30;8.87;;;5.60;;
11535;SDS011;5824;49.336;8.652;2024-01-16T04:39:56;10.13;;;6.17;;
11535;SDS011;5824;49.336;8.652;2024-01-16T04:42:23;11.27;;;5.63;;
11535;SDS011;5824;49.336;8.652;2024-01-16T04:44:48;11.97;;;6.47;;
11535;SDS011;5824;49.336;8.652;2024-01-16T04:47:14;11.30;;;6.40;;
11535;SDS011;5824;49.336;8.652;2024-01-16T04:49:41;11.10;;;6.63;;
11535;SDS011;5824;49.336;8.652;2024-01-16T04:52:07;14.27;;;7.70;;
11535;SDS011;5824;49.336;8.652;2024-01-16T04:54:32;21.23;;;8.50;;
11535;SDS011;5824;49.336;8.652;2024-01-16T04:56:58;17.13;;;8.30;;
11535;SDS011;5824;49.336;8.652;2024-01-16T04:59:23;18.67;;;8.77;;
11535;SDS011;5824;49.336;8.652;2024-01-16T05:01:49;16.00;;;8.37;;
11535;SDS011;5824;49.336;8.652;2024-01-16T05:04:15;17.90;;;9.40;;
11535;SDS011;5824;49.336;8.652;2024-01-16T05:06:40;21.17;;;9.83;;
11535;SDS011;5824;49.336;8.652;2024-01-16T05:09:07;14.20;;;7.40;;
11535;SDS011;5824;49.336;8.652;2024-01-16T05:11:34;18.97;;;9.30;;
11535;SDS011;5824;49.336;8.652;2024-01-16T05:13:59;16.17;;;8.97;;
11535;SDS011;5824;49.336;8.652;2024-01-16T05:16:25;25.70;;;12.67;;
11535;SDS011;5824;49.336;8.652;2024-01-16T05:18:51;14.90;;;7.80;;
11535;SDS011;5824;49.336;8.652;2024-01-16T05:21:17;12.47;;;6.70;;
11535;SDS011;5824;49.336;8.652;2024-01-16T05:23:42;17.87;;;8.00;;
11535;SDS011;5824;49.336;8.652;2024-01-16T05:26:08;16.60;;;9.10;;
11535;SDS011;5824;49.336;8.652;2024-01-16T05:28:33;27.60;;;12.57;;
11535;SDS011;5824;49.336;8.652;2024-01-16T05:30:59;25.17;;;11.60;;
11535;SDS011;5824;49.336;8.652;2024-01-16T05:33:25;24.37;;;11.33;;
11535;SDS011;5824;49.336;8.652;2024-01-16T05:35:50;29.30;;;14.43;;
11535;SDS011;5824;49.336;8.652;2024-01-16T05:38:16;23.73;;;10.90;;
11535;SDS011;5824;49.336;8.652;2024-01-16T05:40:41;22.20;;;11.07;;
11535;SDS011;5824;49.336;8.652;2024-01-16T05:43:07;14.93;;;8.47;;
11535;SDS011;5824;49.336;8.652;2024-01-16T05:45:33;18.90;;;8.77;;
11535;SDS011;5824;49.336;8.652;2024-01-16T05:47:58;15.53;;;8.23;;
11535;SDS011;5824;49.336;8.652;2024-01-16T05:50:23;13.97;;;7.50;;
11535;SDS011;5824;49.336;8.652;2024-01-16T05:52:49;13.13;;;7.03;;
11535;SDS011;5824;49.336;8.652;2024-01-16T05:55:14;14.90;;;7.80;;
11535;SDS011;5824;49.336;8.652;2024-01-16T05:57:40;13.30;;;6.43;;
11535;SDS011;5824;49.336;8.652;2024-01-16T06:00:08;9.80;;;6.90;;
11535;SDS011;5824;49.336;8.652;2024-01-16T06:02:34;11.93;;;6.87;;
11535;SDS011;5824;49.336;8.652;2024-01-16T06:05:00;15.00;;;7.70;;
11535;SDS011;5824;49.336;8.652;2024-01-16T06:07:25;13.33;;;7.40;;
11535;SDS011;5824;49.336;8.652;2024-01-16T06:09:51;17.60;;;7.77;;
11535;SDS011;5824;49.336;8.652;2024-01-16T06:12:16;12.13;;;7.50;;
11535;SDS011;5824;49.336;8.652;2024-01-16T06:14:42;13.03;;;6.50;;
11535;SDS011;5824;49.336;8.652;2024-01-16T06:17:07;12.53;;;6.90;;
11535;SDS011;5824;49.336;8.652;2024-01-16T06:19:33;11.37;;;6.20;;
11535;SDS011;5824;49.336;8.652;2024-01-16T06:21:59;12.63;;;6.20;;
11535;SDS011;5824;49.336;8.652;2024-01-16T06:24:24;9.80;;;6.30;;
11535;SDS011;5824;49.336;8.652;2024-01-16T06:26:50;31.60;;;6.23;;
11535;SDS011;5824;49.336;8.652;2024-01-16T06:29:16;10.70;;;6.70;;
11535;SDS011;5824;49.336;8.652;2024-01-16T06:31:41;13.70;;;6.17;;
11535;SDS011;5824;49.336;8.652;2024-01-16T06:34:07;9.90;;;5.83;;
11535;SDS011;5824;49.336;8.652;2024-01-16T06:36:33;10.70;;;6.33;;
11535;SDS011;5824;49.336;8.652;2024-01-16T06:38:59;14.23;;;6.50;;
11535;SDS011;5824;49.336;8.652;2024-01-16T06:41:24;10.13;;;5.90;;
11535;SDS011;5824;49.336;8.652;2024-01-16T06:43:50;13.97;;;7.00;;
11535;SDS011;5824;49.336;8.652;2024-01-16T06:46:15;22.63;;;6.57;;
11535;SDS011;5824;49.336;8.652;2024-01-16T06:48:41;13.63;;;5.97;;
11535;SDS011;5824;49.336;8.652;2024-01-16T06:51:06;17.33;;;7.80;;
11535;SDS011;5824;49.336;8.652;2024-01-16T06:53:33;14.53;;;6.63;;
11535;SDS011;5824;49.336;8.652;2024-01-16T06:55:58;17.93;;;6.87;;
11535;SDS011;5824;49.336;8.652;2024-01-16T06:58:23;11.40;;;6.67;;
11535;SDS011;5824;49.336;8.652;2024-01-16T07:00:49;14.50;;;6.63;;
11535;SDS011;5824;49.336;8.652;2024-01-16T07:03:14;14.33;;;8.03;;
11535;SDS011;5824;49.336;8.652;2024-01-16T07:05:40;14.63;;;7.67;;
11535;SDS011;5824;49.336;8.652;2024-01-16T07:08:06;15.07;;;7.13;;
11535;SDS011;5824;49.336;8.652;2024-01-16T07:10:33;19.17;;;7.37;;
11535;SDS011;5824;49.336;8.652;2024-01-16T07:12:59;14.83;;;7.10;;
11535;SDS011;5824;49.336;8.652;2024-01-16T07:15:24;21.33;;;8.30;;
11535;SDS011;5824;49.336;8.652;2024-01-16T07:17:50;20.00;;;7.63;;
11535;SDS011;5824;49.336;8.652;2024-01-16T07:20:16;12.53;;;6.90;;
11535;SDS011;5824;49.336;8.652;2024-01-16T07:22:41;14.00;;;6.80;;
11535;SDS011;5824;49.336;8.652;2024-01-16T07:25:07;13.53;;;7.93;;
11535;SDS011;5824;49.336;8.652;2024-01-16T07:27:33;16.33;;;7.70;;
11535;SDS011;5824;49.336;8.652;2024-01-16T07:29:59;16.70;;;9.27;;
11535;SDS011;5824;49.336;8.652;2024-01-16T07:32:25;23.67;;;10.37;;
11535;SDS011;5824;49.336;8.652;2024-01-16T07:34:51;23.63;;;10.13;;
11535;SDS011;5824;49.336;8.652;2024-01-16T07:37:17;19.30;;;9.90;;
11535;SDS011;5824;49.336;8.652;2024-01-16T07:39:43;18.50;;;9.10;;
11535;SDS011;5824;49.336;8.652;2024-01-16T07:42:09;19.17;;;9.20;;
11535;SDS011;5824;49.336;8.652;2024-01-16T07:44:34;20.77;;;8.70;;
11535;SDS011;5824;49.336;8.652;2024-01-16T07:47:00;21.80;;;9.40;;
11535;SDS011;5824;49.336;8.652;2024-01-16T07:49:25;17.00;;;9.10;;
11535;SDS011;5824;49.336;8.652;2024-01-16T07:51:51;14.60;;;7.43;;
11535;SDS011;5824;49.336;8.652;2024-01-16T07:54:17;18.37;;;9.93;;
11535;SDS011;5824;49.336;8.652;2024-01-16T07:56:42;18.60;;;9.33;;
11535;SDS011;5824;49.336;8.652;2024-01-16T07:59:08;22.43;;;10.03;;
11535;SDS011;5824;49.336;8.652;2024-01-16T08:01:33;15.77;;;9.53;;
11535;SDS011;5824;49.336;8.652;2024-01-16T08:03:59;21.80;;;9.53;;
11535;SDS011;5824;49.336;8.652;2024-01-16T08:06:24;21.43;;;11.20;;
11535;SDS011;5824;49.336;8.652;2024-01-16T08:08:51;27.30;;;10.33;;
11535;SDS011;5824;49.336;8.652;2024-01-16T08:11:18;21.20;;;10.73;;
11535;SDS011;5824;49.336;8.652;2024-01-16T08:13:43;22.13;;;11.03;;
11535;SDS011;5824;49.336;8.652;2024-01-16T08:16:09;19.07;;;9.57;;
11535;SDS011;5824;49.336;8.652;2024-01-16T08:18:34;21.23;;;9.50;;
11535;SDS011;5824;49.336;8.652;2024-01-16T08:21:00;23.53;;;9.40;;
11535;SDS011;5824;49.336;8.652;2024-01-16T08:23:25;26.97;;;10.30;;
11535;SDS011;5824;49.336;8.652;2024-01-16T08:25:51;19.90;;;9.70;;
11535;SDS011;5824;49.336;8.652;2024-01-16T08:28:17;20.37;;;9.43;;
11535;SDS011;5824;49.336;8.652;2024-01-16T08:30:43;21.87;;;10.70;;
11535;SDS011;5824;49.336;8.652;2024-01-16T08:33:08;18.43;;;9.27;;
11535;SDS011;5824;49.336;8.652;2024-01-16T08:35:34;26.77;;;11.77;;
11535;SDS011;5824;49.336;8.652;2024-01-16T08:37:59;22.60;;;10.70;;
11535;SDS011;5824;49.336;8.652;2024-01-16T08:40:26;20.53;;;10.67;;
11535;SDS011;5824;49.336;8.652;2024-01-16T08:42:51;20.10;;;9.53;;
11535;SDS011;5824;49.336;8.652;2024-01-16T08:45:20;19.93;;;9.23;;
11535;SDS011;5824;49.336;8.652;2024-01-16T08:47:46;24.90;;;11.80;;
11535;SDS011;5824;49.336;8.652;2024-01-16T08:50:11;28.60;;;15.30;;
11535;SDS011;5824;49.336;8.652;2024-01-16T08:52:37;22.70;;;12.67;;
11535;SDS011;5824;49.336;8.652;2024-01-16T08:55:02;15.47;;;9.00;;
11535;SDS011;5824;49.336;8.652;2024-01-16T08:57:29;20.00;;;10.57;;
11535;SDS011;5824;49.336;8.652;2024-01-16T08:59:54;19.67;;;10.20;;
11535;SDS011;5824;49.336;8.652;2024-01-16T09:02:20;19.90;;;8.90;;
11535;SDS011;5824;49.336;8.652;2024-01-16T09:04:45;20.67;;;9.07;;
11535;SDS011;5824;49.336;8.652;2024-01-16T09:07:12;15.00;;;8.60;;
11535;SDS011;5824;49.336;8.652;2024-01-16T09:09:40;15.13;;;7.60;;
11535;SDS011;5824;49.336;8.652;2024-01-16T09:12:07;15.83;;;8.37;;
11535;SDS011;5824;49.336;8.652;2024-01-16T09:14:35;19.90;;;8.27;;
11535;SDS011;5824;49.336;8.652;2024-01-16T09:17:01;16.00;;;8.27;;
11535;SDS011;5824;49.336;8.652;2024-01-16T09:19:28;17.77;;;8.77;;
11535;SDS011;5824;49.336;8.652;2024-01-16T09:21:54;19.50;;;9.03;;
11535;SDS011;5824;49.336;8.652;2024-01-16T09:24:20;13.73;;;7.13;;
11535;SDS011;5824;49.336;8.652;2024-01-16T09:26:45;14.83;;;7.70;;
11535;SDS011;5824;49.336;8.652;2024-01-16T09:29:11;13.47;;;6.50;;
11535;SDS011;5824;49.336;8.652;2024-01-16T09:31:37;17.43;;;8.30;;
11535;SDS011;5824;49.336;8.652;2024-01-16T09:34:03;16.00;;;7.83;;
11535;SDS011;5824;49.336;8.652;2024-01-16T09:36:29;14.80;;;8.47;;
11535;SDS011;5824;49.336;8.652;2024-01-16T09:38:55;18.40;;;9.17;;
11535;SDS011;5824;49.336;8.652;2024-01-16T09:41:20;19.57;;;8.27;;
11535;SDS011;5824;49.336;8.652;2024-01-16T09:43:46;19.23;;;7.50;;
11535;SDS011;5824;49.336;8.652;2024-01-16T09:46:12;14.63;;;7.90;;
11535;SDS011;5824;49.336;8.652;2024-01-16T09:48:41;16.93;;;8.23;;
11535;SDS011;5824;49.336;8.652;2024-01-16T09:51:10;15.60;;;7.80;;
11535;SDS011;5824;49.336;8.652;2024-01-16T09:53:39;19.23;;;8.20;;
11535;SDS011;5824;49.336;8.652;2024-01-16T09:56:06;16.80;;;7.40;;
11535;SDS011;5824;49.336;8.652;2024-01-16T09:58:38;18.33;;;8.27;;
11535;SDS011;5824;49.336;8.652;2024-01-16T10:01:04;16.70;;;7.77;;
11535;SDS011;5824;49.336;8.652;2024-01-16T10:03:31;14.60;;;7.80;;
11535;SDS011;5824;49.336;8.652;2024-01-16T10:05:59;13.57;;;7.03;;
11535;SDS011;5824;49.336;8.652;2024-01-16T10:08:29;13.53;;;7.37;;
11535;SDS011;5824;49.336;8.652;2024-01-16T10:10:56;16.87;;;8.10;;
11535;SDS011;5824;49.336;8.652;2024-01-16T10:13:22;16.50;;;7.30;;
11535;SDS011;5824;49.336;8.652;2024-01-16T10:15:50;13.97;;;7.03;;
11535;SDS011;5824;49.336;8.652;2024-01-16T10:18:24;14.10;;;7.63;;
11535;SDS011;5824;49.336;8.652;2024-01-16T10:20:51;19.40;;;7.90;;
11535;SDS011;5824;49.336;8.652;2024-01-16T10:23:23;12.33;;;7.07;;
11535;SDS011;5824;49.336;8.652;2024-01-16T10:28:34;13.97;;;7.07;;
11535;SDS011;5824;49.336;8.652;2024-01-16T10:31:01;11.10;;;6.50;;
11535;SDS011;5824;49.336;8.652;2024-01-16T10:33:45;12.73;;;7.00;;
11535;SDS011;5824;49.336;8.652;2024-01-16T10:36:12;16.60;;;7.80;;
11535;SDS011;5824;49.336;8.652;2024-01-16T10:38:39;13.07;;;6.60;;
11535;SDS011;5824;49.336;8.652;2024-01-16T10:41:08;14.37;;;7.53;;
11535;SDS011;5824;49.336;8.652;2024-01-16T10:43:35;10.67;;;6.70;;
11535;SDS011;5824;49.336;8.652;2024-01-16T10:46:10;15.23;;;7.13;;
11535;SDS011;5824;49.336;8.652;2024-01-16T10:48:59;16.10;;;7.13;;
11535;SDS011;5824;49.336;8.652;2024-01-16T10:51:26;11.60;;;7.10;;
11535;SDS011;5824;49.336;8.652;2024-01-16T10:54:12;12.07;;;6.30;;
11535;SDS011;5824;49.336;8.652;2024-01-16T10:56:45;17.03;;;6.83;;
11535;SDS011;5824;49.336;8.652;2024-01-16T10:59:18;16.87;;;7.50;;
11535;SDS011;5824;49.336;8.652;2024-01-16T11:01:51;15.43;;;7.50;;
11535;SDS011;5824;49.336;8.652;2024-01-16T11:04:20;12.23;;;6.80;;
11535;SDS011;5824;49.336;8.652;2024-01-16T11:06:52;12.73;;;6.50;;
11535;SDS011;5824;49.336;8.652;2024-01-16T11:09:19;16.63;;;8.57;;
11535;SDS011;5824;49.336;8.652;2024-01-16T11:11:46;14.77;;;7.70;;
11535;SDS011;5824;49.336;8.652;2024-01-16T11:14:12;11.63;;;6.27;;
11535;SDS011;5824;49.336;8.652;2024-01-16T11:16:38;14.03;;;7.07;;
11535;SDS011;5824;49.336;8.652;2024-01-16T11:19:04;14.47;;;8.83;;
11535;SDS011;5824;49.336;8.652;2024-01-16T11:21:33;14.77;;;6.90;;
11535;SDS011;5824;49.336;8.652;2024-01-16T11:23:59;14.00;;;7.10;;
11535;SDS011;5824;49.336;8.652;2024-01-16T11:26:26;13.80;;;7.50;;
11535;SDS011;5824;49.336;8.652;2024-01-16T11:28:53;14.40;;;6.50;;
11535;SDS011;5824;49.336;8.652;2024-01-16T11:33:57;12.00;;;6.93;;
11535;SDS011;5824;49.336;8.652;2024-01-16T11:39:20;13.33;;;7.20;;
11535;SDS011;5824;49.336;8.652;2024-01-16T11:41:50;12.10;;;6.50;;
11535;SDS011;5824;49.336;8.652;2024-01-16T11:47:05;15.80;;;6.80;;
11535;SDS011;5824;49.336;8.652;2024-01-16T11:49:31;12.37;;;6.57;;
11535;SDS011;5824;49.336;8.652;2024-01-16T11:51:57;12.30;;;6.70;;
11535;SDS011;5824;49.336;8.652;2024-01-16T11:54:23;12.03;;;6.03;;
11535;SDS011;5824;49.336;8.652;2024-01-16T12:02:24;12.80;;;6.50;;
11535;SDS011;5824;49.336;8.652;2024-01-16T12:04:54;11.43;;;6.67;;
11535;SDS011;5824;49.336;8.652;2024-01-16T12:07:28;10.77;;;5.90;;
11535;SDS011;5824;49.336;8.652;2024-01-16T12:09:58;13.07;;;6.50;;
11535;SDS011;5824;49.336;8.652;2024-01-16T12:12:25;10.80;;;6.20;;
11535;SDS011;5824;49.336;8.652;2024-01-16T12:14:50;11.37;;;6.57;;
11535;SDS011;5824;49.336;8.652;2024-01-16T12:17:18;12.77;;;6.70;;
11535;SDS011;5824;49.336;8.652;2024-01-16T12:19:45;16.40;;;6.73;;
11535;SDS011;5824;49.336;8.652;2024-01-16T12:22:14;15.10;;;6.40;;
11535;SDS011;5824;49.336;8.652;2024-01-16T12:24:41;12.23;;;6.83;;
11535;SDS011;5824;49.336;8.652;2024-01-16T12:27:07;11.40;;;7.00;;
11535;SDS011;5824;49.336;8.652;2024-01-16T12:29:33;10.63;;;6.60;;
11535;SDS011;5824;49.336;8.652;2024-01-16T12:32:11;11.70;;;6.80;;
11535;SDS011;5824;49.336;8.652;2024-01-16T12:34:49;15.47;;;7.10;;
11535;SDS011;5824;49.336;8.652;2024-01-16T12:37:14;14.23;;;8.50;;
11535;SDS011;5824;49.336;8.652;2024-01-16T12:39:40;16.10;;;9.10;;
11535;SDS011;5824;49.336;8.652;2024-01-16T12:42:07;16.20;;;9.10;;
11535;SDS011;5824;49.336;8.652;2024-01-16T12:44:34;11.93;;;7.90;;
11535;SDS011;5824;49.336;8.652;2024-01-16T12:47:01;12.07;;;7.70;;
11535;SDS011;5824;49.336;8.652;2024-01-16T12:49:27;14.13;;;8.73;;
11535;SDS011;5824;49.336;8.652;2024-01-16T12:52:14;12.40;;;7.30;;
11535;SDS011;5824;49.336;8.652;2024-01-16T12:54:48;7.80;;;4.60;;
11535;SDS011;5824;49.336;8.652;2024-01-16T12:57:24;20.33;;;7.77;;
11535;SDS011;5824;49.336;8.652;2024-01-16T12:59:49;11.77;;;6.37;;
11535;SDS011;5824;49.336;8.652;2024-01-16T13:02:20;14.27;;;8.10;;
11535;SDS011;5824;49.336;8.652;2024-01-16T13:04:47;10.30;;;6.47;;
11535;SDS011;5824;49.336;8.652;2024-01-16T13:07:16;10.43;;;6.73;;
11535;SDS011;5824;49.336;8.652;2024-01-16T13:09:43;11.80;;;5.70;;
11535;SDS011;5824;49.336;8.652;2024-01-16T13:12:08;10.03;;;6.10;;
11535;SDS011;5824;49.336;8.652;2024-01-16T13:14:34;9.70;;;5.20;;
11535;SDS011;5824;49.336;8.652;2024-01-16T13:17:01;8.93;;;4.80;;
11535;SDS011;5824;49.336;8.652;2024-01-16T13:19:28;9.47;;;4.30;;
11535;SDS011;5824;49.336;8.652;2024-01-16T13:21:58;10.00;;;4.70;;
11535;SDS011;5824;49.336;8.652;2024-01-16T13:24:23;11.13;;;4.60;;
11535;SDS011;5824;49.336;8.652;2024-01-16T13:26:49;11.47;;;4.30;;
11535;SDS011;5824;49.336;8.652;2024-01-16T13:29:15;8.37;;;3.87;;
11535;SDS011;5824;49.336;8.652;2024-01-16T13:31:40;9.27;;;4.23;;
11535;SDS011;5824;49.336;8.652;2024-01-16T13:34:06;9.03;;;3.90;;
11535;SDS011;5824;49.336;8.652;2024-01-16T13:36:32;5.53;;;3.37;;
11535;SDS011;5824;49.336;8.652;2024-01-16T13:38:57;5.80;;;3.73;;
11535;SDS011;5824;49.336;8.652;2024-01-16T13:41:23;7.57;;;3.90;;
11535;SDS011;5824;49.336;8.652;2024-01-16T13:43:49;8.33;;;4.07;;
11535;SDS011;5824;49.336;8.652;2024-01-16T13:46:15;5.70;;;3.53;;
11535;SDS011;5824;49.336;8.652;2024-01-16T13:48:42;8.17;;;3.70;;
11535;SDS011;5824;49.336;8.652;2024-01-16T13:51:08;6.50;;;3.90;;
11535;SDS011;5824;49.336;8.652;2024-01-16T13:53:33;5.40;;;3.27;;
11535;SDS011;5824;49.336;8.652;2024-01-16T13:56:00;9.30;;;4.80;;
11535;SDS011;5824;49.336;8.652;2024-01-16T13:58:25;10.17;;;4.90;;
11535;SDS011;5824;49.336;8.652;2024-01-16T14:00:51;9.60;;;4.00;;
11535;SDS011;5824;49.336;8.652;2024-01-16T14:03:17;9.47;;;4.23;;
11535;SDS011;5824;49.336;8.652;2024-01-16T14:05:45;8.13;;;4.20;;
11535;SDS011;5824;49.336;8.652;2024-01-16T14:08:11;9.43;;;4.70;;
11535;SDS011;5824;49.336;8.652;2024-01-16T14:10:38;8.87;;;4.90;;
11535;SDS011;5824;49.336;8.652;2024-01-16T14:13:03;11.50;;;4.53;;
11535;SDS011;5824;49.336;8.652;2024-01-16T14:15:29;9.77;;;4.17;;
11535;SDS011;5824;49.336;8.652;2024-01-16T14:17:56;7.77;;;4.07;;
11535;SDS011;5824;49.336;8.652;2024-01-16T14:20:23;9.40;;;4.97;;
11535;SDS011;5824;49.336;8.652;2024-01-16T14:22:51;9.80;;;4.67;;
11535;SDS011;5824;49.336;8.652;2024-01-16T14:25:17;17.57;;;5.40;;
11535;SDS011;5824;49.336;8.652;2024-01-16T14:28:05;7.83;;;4.73;;
11535;SDS011;5824;49.336;8.652;2024-01-16T14:30:30;9.23;;;4.67;;
11535;SDS011;5824;49.336;8.652;2024-01-16T14:32:56;10.00;;;4.10;;
11535;SDS011;5824;49.336;8.652;2024-01-16T14:35:22;7.87;;;4.70;;
11535;SDS011;5824;49.336;8.652;2024-01-16T14:37:49;6.30;;;3.63;;
11535;SDS011;5824;49.336;8.652;2024-01-16T14:40:15;8.73;;;3.90;;
11535;SDS011;5824;49.336;8.652;2024-01-16T14:42:50;7.20;;;4.10;;
11535;SDS011;5824;49.336;8.652;2024-01-16T14:45:21;9.30;;;3.73;;
11535;SDS011;5824;49.336;8.652;2024-01-16T14:47:47;11.10;;;4.40;;
11535;SDS011;5824;49.336;8.652;2024-01-16T14:50:14;10.97;;;4.77;;
11535;SDS011;5824;49.336;8.652;2024-01-16T14:52:42;10.63;;;5.17;;
11535;SDS011;5824;49.336;8.652;2024-01-16T14:55:11;9.50;;;4.80;;
11535;SDS011;5824;49.336;8.652;2024-01-16T14:57:37;7.60;;;4.27;;
11535;SDS011;5824;49.336;8.652;2024-01-16T15:00:07;8.20;;;4.27;;
11535;SDS011;5824;49.336;8.652;2024-01-16T15:02:47;9.53;;;5.10;;